Time;durP1;ratioP1;P1;durP2;ratioP2;P2;SDS_P1;SDS_P2;PMS_P1;PMS_P2;Temp;Humidity;BMP_temperature;BMP_pressure;BME280_temperature;BME280_humidity;BME280_pressure;Samples;Min_cycle;Max_cycle;Signal;HPM_P1;HPM_P2
2022/11/11 00:01:03;;;;;;;25.65;10.07;;;;;;;7.68;100.00;100102.41;4373748;32;20161;-76
2022/11/11 00:03:48;;;;;;;21.55;9.70;;;;;;;7.93;100.00;100108.00;4363215;32;20061;-76
2022/11/11 00:06:33;;;;;;;27.75;10.35;;;;;;;7.77;100.00;100111.06;4365611;32;20389;-74
2022/11/11 00:09:17;;;;;;;19.30;10.20;;;;;;;7.88;100.00;100107.81;4355266;32;20449;-74
2022/11/11 00:12:02;;;;;;;17.65;9.48;;;;;;;7.57;100.00;100084.25;4365237;32;20043;-75
2022/11/11 00:14:47;;;;;;;22.23;10.48;;;;;;;7.77;100.00;100078.91;4362915;32;20541;-74
2022/11/11 00:26:44;;;;;;;23.25;9.90;;;;;;;7.63;100.00;100070.03;4335372;33;20042;-75
2022/11/11 00:29:29;;;;;;;25.83;9.60;;;;;;;7.42;100.00;100054.97;4335975;33;20421;-74
2022/11/11 00:32:26;;;;;;;17.77;8.13;;;;;;;7.78;100.00;100110.88;4335952;33;20033;-76
2022/11/11 00:38:44;;;;;;;20.90;10.98;;;;;;;7.64;100.00;100098.47;4320888;33;20041;-75
2022/11/11 00:41:21;;;;;;;23.15;8.88;;;;;;;7.53;100.00;100099.94;4333021;33;20079;-75
2022/11/11 00:44:06;;;;;;;19.12;8.57;;;;;;;7.37;100.00;100065.44;4334540;33;20044;-75
2022/11/11 00:52:58;;;;;;;17.10;9.35;;;;;;;7.55;100.00;100087.13;4364156;32;20049;-74
2022/11/11 00:55:43;;;;;;;22.45;9.65;;;;;;;7.45;100.00;100102.78;4364751;32;20065;-76
2022/11/11 00:58:28;;;;;;;25.52;9.73;;;;;;;7.34;100.00;100068.53;4364060;32;20061;-75
2022/11/11 01:01:13;;;;;;;32.33;9.60;;;;;;;7.42;100.00;100066.50;4361801;32;20062;-75
2022/11/11 01:03:59;;;;;;;18.75;8.65;;;;;;;7.70;100.00;100104.87;4363391;32;20373;-75
2022/11/11 01:06:43;;;;;;;22.95;10.13;;;;;;;7.14;100.00;100031.81;4382595;32;20035;-73
2022/11/11 01:09:28;;;;;;;23.30;9.88;;;;;;;7.53;100.00;100105.28;4379152;32;20154;-74
2022/11/11 01:12:13;;;;;;;18.58;9.20;;;;;;;7.48;100.00;100070.22;4379148;32;20425;-75
2022/11/11 01:14:58;;;;;;;21.48;9.00;;;;;;;7.14;100.00;100039.84;4376697;32;20043;-75
2022/11/11 01:17:44;;;;;;;17.65;8.98;;;;;;;7.30;100.00;100075.34;4375547;32;20054;-73
2022/11/11 01:20:29;;;;;;;22.65;8.65;;;;;;;7.29;100.00;100103.97;4378224;32;20481;-75
2022/11/11 01:23:13;;;;;;;17.40;8.32;;;;;;;7.36;100.00;100109.38;4377815;32;20093;-74
2022/11/11 01:26:12;;;;;;;22.35;9.48;;;;;;;7.33;100.00;100109.78;4377449;32;20166;-75
2022/11/11 01:28:57;;;;;;;21.95;8.55;;;;;;;7.52;100.00;100095.59;4375393;32;20060;-75
2022/11/11 01:31:42;;;;;;;21.75;9.30;;;;;;;7.22;100.00;100071.81;4383811;32;20124;-75
2022/11/11 01:34:27;;;;;;;26.58;9.20;;;;;;;7.10;100.00;100068.09;4385255;32;20068;-74
2022/11/11 01:37:12;;;;;;;21.27;7.87;;;;;;;7.21;100.00;100088.94;4389993;32;20127;-76
2022/11/11 01:39:57;;;;;;;22.62;9.35;;;;;;;7.06;100.00;100061.47;4395990;32;20050;-76
2022/11/11 01:42:50;;;;;;;17.95;10.48;;;;;;;7.16;100.00;100027.06;4405817;32;20142;-76
2022/11/11 01:45:44;;;;;;;17.95;7.55;;;;;;;7.56;100.00;100070.03;4411392;32;20064;-76
2022/11/11 01:51:49;;;;;;;26.87;8.38;;;;;;;7.63;100.00;100094.97;4433188;32;20034;-76
2022/11/11 01:54:43;;;;;;;;;;;;;;;7.53;100.00;100089.22;4432356;32;20050;-76
2022/11/11 01:57:39;;;;;;;22.13;9.57;;;;;;;7.90;100.00;100083.47;4431574;32;19941;-74
2022/11/11 02:00:24;;;;;;;18.58;9.00;;;;;;;8.03;100.00;100085.31;4428238;32;20041;-77
2022/11/11 02:03:10;;;;;;;20.23;8.65;;;;;;;7.67;100.00;100086.53;4431732;32;20060;-75
2022/11/11 02:05:56;;;;;;;27.70;10.00;;;;;;;7.85;100.00;100086.75;4432865;32;20100;-76
2022/11/11 02:08:42;;;;;;;21.35;8.88;;;;;;;7.79;100.00;100044.69;4433044;32;20056;-75
2022/11/11 02:14:42;;;;;;;16.40;8.38;;;;;;;7.56;100.00;100056.63;4432231;32;20034;-75
2022/11/11 02:17:30;;;;;;;34.38;11.50;;;;;;;8.00;100.00;100084.69;4430901;32;20419;-76
2022/11/11 02:20:23;;;;;;;19.27;9.85;;;;;;;7.97;100.00;100058.28;4432894;32;20038;-75
2022/11/11 02:23:21;;;;;;;17.02;8.13;;;;;;;8.06;100.00;100077.69;4431412;32;20068;-76
2022/11/11 02:26:08;;;;;;;20.42;9.65;;;;;;;7.74;100.00;100044.47;4398121;32;20027;-76
2022/11/11 02:28:54;;;;;;;23.83;9.13;;;;;;;7.71;100.00;100079.75;4400413;32;20392;-75
2022/11/11 02:31:39;;;;;;;24.02;9.38;;;;;;;7.50;100.00;100046.72;4412549;32;20360;-75
2022/11/11 02:34:31;;;;;;;22.70;8.77;;;;;;;7.69;100.00;100084.47;4409791;32;20463;-75
2022/11/11 02:37:23;;;;;;;26.80;10.70;;;;;;;7.76;100.00;100042.41;4413781;32;20026;-76
2022/11/11 02:40:11;;;;;;;25.00;8.73;;;;;;;7.90;100.00;100105.72;4414927;32;20253;-75
2022/11/11 02:42:56;;;;;;;29.25;10.55;;;;;;;7.76;100.00;100077.25;4415077;32;20046;-76
2022/11/11 02:45:41;;;;;;;21.77;10.18;;;;;;;7.86;100.00;100104.47;4414171;32;20058;-77
2022/11/11 02:48:26;;;;;;;21.73;9.23;;;;;;;7.72;100.00;100113.53;4414664;32;20043;-76
2022/11/11 02:51:11;;;;;;;24.63;10.07;;;;;;;7.56;100.00;100110.25;4415046;32;20039;-76
2022/11/11 02:53:57;;;;;;;24.73;8.70;;;;;;;7.45;100.00;100103.62;4414724;32;20031;-75
2022/11/11 02:59:46;;;;;;;21.35;8.40;;;;;;;7.13;100.00;100072.19;4399077;32;20061;-75
2022/11/11 03:02:31;;;;;;;25.75;8.70;;;;;;;6.96;100.00;100074.41;4397591;32;20467;-75
2022/11/11 03:05:16;;;;;;;19.75;9.00;;;;;;;7.08;100.00;100075.47;4399076;32;20031;-76
2022/11/11 03:08:02;;;;;;;23.48;8.68;;;;;;;7.27;100.00;100112.22;4398496;32;20047;-77
2022/11/11 03:10:47;;;;;;;18.08;9.40;;;;;;;7.37;100.00;100102.97;4399371;32;20372;-76
2022/11/11 03:13:31;;;;;;;15.80;9.20;;;;;;;7.30;100.00;100084.19;4361840;32;20047;-75
2022/11/11 03:19:20;;;;;;;15.35;7.97;;;;;;;7.60;100.00;100103.44;4368930;32;20077;-76
2022/11/11 03:22:05;;;;;;;15.40;7.78;;;;;;;7.52;100.00;100092.91;4369371;32;20031;-76
2022/11/11 03:27:54;;;;;;;20.40;9.30;;;;;;;7.06;100.00;100088.25;4372476;32;20388;-75
2022/11/11 03:30:41;;;;;;;22.50;8.85;;;;;;;7.18;100.00;100086.66;4383035;32;20042;-76
2022/11/11 03:33:26;;;;;;;23.30;9.23;;;;;;;7.01;100.00;100045.19;4383135;32;20035;-75
2022/11/11 03:36:11;;;;;;;21.15;8.38;;;;;;;7.23;100.00;100094.91;4383836;32;20053;-75
2022/11/11 03:38:56;;;;;;;21.45;8.73;;;;;;;7.60;100.00;100132.09;4366929;32;20184;-75
2022/11/11 03:41:40;;;;;;;22.73;9.70;;;;;;;7.52;100.00;100146.50;4368763;32;20124;-76
2022/11/11 03:44:27;;;;;;;24.30;8.00;;;;;;;7.49;100.00;100117.44;4382031;32;20065;-75
2022/11/11 03:47:15;;;;;;;17.15;9.27;;;;;;;7.18;100.00;100126.81;4398425;32;20038;-76
2022/11/11 03:49:59;;;;;;;21.00;9.20;;;;;;;7.36;100.00;100134.28;4396908;32;20053;-76
2022/11/11 03:52:44;;;;;;;19.85;8.00;;;;;;;7.49;100.00;100136.19;4383639;32;20072;-76
2022/11/11 03:55:29;;;;;;;26.62;10.02;;;;;;;7.34;100.00;100140.88;4381441;32;20031;-73
2022/11/11 03:58:14;;;;;;;24.75;9.30;;;;;;;7.55;100.00;100140.75;4396611;32;20034;-78
2022/11/11 04:00:59;;;;;;;28.90;8.85;;;;;;;7.45;100.00;100126.88;4395939;32;20053;-77
2022/11/11 04:16:04;;;;;;;28.75;9.20;;;;;;;7.90;100.00;100151.31;4414413;32;20047;-75
2022/11/11 04:21:53;;;;;;;20.55;8.57;;;;;;;7.49;100.00;100112.06;4399406;32;20043;-75
2022/11/11 04:27:41;;;;;;;18.73;9.15;;;;;;;7.77;100.00;100153.97;4400765;32;20055;-76
2022/11/11 04:30:26;;;;;;;20.12;10.73;;;;;;;7.53;100.00;100118.69;4400069;32;20391;-75
2022/11/11 04:33:11;;;;;;;20.25;8.70;;;;;;;7.54;100.00;100149.81;4400203;32;20072;-75
2022/11/11 04:41:51;;;;;;;16.15;7.93;;;;;;;7.48;100.00;100145.25;4412861;32;20325;-74
2022/11/11 04:47:59;;;;;;;28.73;8.80;;;;;;;7.17;100.00;100138.56;4415126;32;20081;-74
2022/11/11 04:50:44;;;;;;;15.20;7.10;;;;;;;7.67;100.00;100169.63;4412878;32;20363;-74
2022/11/11 04:53:29;;;;;;;16.08;8.88;;;;;;;7.20;100.00;100159.59;4414941;32;20064;-75
2022/11/11 04:59:19;;;;;;;25.12;9.30;;;;;;;7.22;100.00;100112.00;4400279;32;20060;-75
2022/11/11 05:05:07;;;;;;;17.52;9.30;;;;;;;7.13;100.00;100153.34;4410456;32;20125;-74
2022/11/11 05:10:57;;;;;;;21.58;8.75;;;;;;;7.35;100.00;100166.66;4401031;32;20475;-76
2022/11/11 05:23:00;;;;;;;40.12;10.60;;;;;;;7.31;100.00;100176.09;4400927;32;20135;-76
2022/11/11 05:25:45;;;;;;;17.67;9.65;;;;;;;7.36;100.00;100169.13;4401014;32;20064;-76
2022/11/11 05:28:30;;;;;;;19.98;10.90;;;;;;;7.00;100.00;100153.31;4399468;32;20098;-77
2022/11/11 05:31:15;;;;;;;29.02;9.00;;;;;;;7.07;100.00;100155.00;4399924;32;20065;-75
2022/11/11 05:33:59;;;;;;;17.23;8.27;;;;;;;7.14;100.00;100155.03;4385754;32;20088;-75
2022/11/11 05:36:44;;;;;;;22.00;9.35;;;;;;;7.11;100.00;100154.59;4385525;32;20051;-75
2022/11/11 05:39:29;;;;;;;26.80;9.85;;;;;;;7.03;100.00;100159.09;4385393;32;20077;-75
2022/11/11 05:42:14;;;;;;;19.48;9.35;;;;;;;7.16;100.00;100157.50;4385600;32;20039;-77
2022/11/11 05:44:59;;;;;;;23.38;10.98;;;;;;;7.18;100.00;100161.66;4377921;32;20031;-76
2022/11/11 05:47:44;;;;;;;28.25;9.65;;;;;;;7.06;100.00;100125.75;4368712;32;20448;-76
2022/11/11 05:50:28;;;;;;;25.27;11.02;;;;;;;6.92;100.00;100165.00;4368618;32;20024;-76
2022/11/11 05:53:14;;;;;;;16.70;8.75;;;;;;;7.02;100.00;100172.69;4370180;32;20058;-76
2022/11/11 05:55:58;;;;;;;18.35;8.82;;;;;;;6.93;100.00;100149.78;4365883;32;20085;-77
2022/11/11 05:58:43;;;;;;;17.80;8.68;;;;;;;7.11;100.00;100166.13;4369025;32;20051;-75
2022/11/11 06:01:28;;;;;;;20.17;8.80;;;;;;;6.78;100.00;100161.44;4370617;32;20050;-75
2022/11/11 06:04:13;;;;;;;32.40;10.05;;;;;;;6.51;100.00;100123.81;4373149;32;20035;-74
2022/11/11 06:06:58;;;;;;;26.33;9.65;;;;;;;7.00;100.00;100164.03;4390527;32;20031;-75
2022/11/11 06:09:43;;;;;;;25.05;10.43;;;;;;;7.03;100.00;100163.63;4404298;32;20367;-75
2022/11/11 06:13:00;;;;;;;22.00;9.77;;;;;;;7.06;100.00;100152.53;4411520;32;20049;-74
2022/11/11 06:15:37;;;;;;;20.83;9.50;;;;;;;6.79;100.00;100104.19;4403547;32;20424;-76
2022/11/11 06:18:22;;;;;;;26.33;10.40;;;;;;;7.38;100.00;100136.78;4407594;32;20048;-75
2022/11/11 06:21:07;;;;;;;32.03;10.15;;;;;;;7.53;100.00;100164.25;4392353;32;20054;-75
2022/11/11 06:23:52;;;;;;;21.33;9.75;;;;;;;7.59;100.00;100160.72;4392525;32;20608;-75
2022/11/11 06:26:37;;;;;;;22.95;11.35;;;;;;;7.32;100.00;100146.44;4391961;32;20052;-75
2022/11/11 06:29:22;;;;;;;20.05;9.48;;;;;;;6.66;100.00;100062.12;4391918;32;20068;-75
2022/11/11 06:32:08;;;;;;;25.85;9.50;;;;;;;7.22;100.00;100120.03;4395509;32;20061;-75
2022/11/11 06:34:53;;;;;;;22.90;8.07;;;;;;;7.16;100.00;100126.19;4394292;32;20078;-74
2022/11/11 06:37:38;;;;;;;25.88;9.43;;;;;;;6.93;100.00;100152.47;4392528;32;20034;-76
2022/11/11 06:40:23;;;;;;;22.05;9.02;;;;;;;7.15;100.00;100159.37;4385518;32;20076;-76
2022/11/11 06:43:08;;;;;;;18.70;8.38;;;;;;;7.18;100.00;100161.66;4387038;32;20065;-76
2022/11/11 06:45:54;;;;;;;18.80;8.38;;;;;;;7.02;100.00;100145.91;4393609;32;20027;-75
2022/11/11 06:48:41;;;;;;;12.37;8.35;;;;;;;7.04;100.00;100122.44;4384665;32;20040;-75
2022/11/11 06:51:26;;;;;;;23.98;8.57;;;;;;;7.00;100.00;100121.19;4373638;32;20120;-75
2022/11/11 06:54:11;;;;;;;18.87;8.05;;;;;;;7.04;100.00;100171.47;4385793;32;20047;-76
2022/11/11 06:56:56;;;;;;;25.50;9.35;;;;;;;7.13;100.00;100163.25;4384499;32;20039;-76
2022/11/11 06:59:41;;;;;;;14.75;8.85;;;;;;;7.12;100.00;100124.94;4354154;32;20036;-76
2022/11/11 07:02:25;;;;;;;18.12;7.97;;;;;;;7.06;100.00;100141.81;4356050;32;20031;-75
2022/11/11 07:05:10;;;;;;;21.75;8.68;;;;;;;6.91;100.00;100166.88;4367807;32;20488;-76
2022/11/11 07:07:43;;;;;;;16.42;8.10;;;;;;;6.95;100.00;100163.78;4368500;32;20101;-75
2022/11/11 07:10:28;;;;;;;21.77;8.18;;;;;;;6.52;100.00;100122.78;4353714;32;20052;-74
2022/11/11 07:13:15;;;;;;;14.43;7.00;;;;;;;7.01;100.00;100155.78;4354207;32;20024;-77
2022/11/11 07:16:00;;;;;;;24.95;8.60;;;;;;;7.34;100.00;100159.63;4353565;32;20048;-75
2022/11/11 07:18:44;;;;;;;14.95;8.10;;;;;;;7.18;100.00;100134.88;4357592;32;20426;-75
2022/11/11 07:21:29;;;;;;;19.83;8.18;;;;;;;7.15;100.00;100135.25;4352267;32;20087;-76
2022/11/11 07:24:14;;;;;;;15.43;7.40;;;;;;;7.35;100.00;100139.84;4343139;32;20062;-76
2022/11/11 07:27:00;;;;;;;21.98;7.53;;;;;;;7.22;100.00;100141.44;4338274;33;20182;-73
2022/11/11 07:29:47;;;;;;;10.20;4.95;;;;;;;6.72;100.00;100074.72;4323033;33;20074;-76
2022/11/11 07:32:32;;;;;;;14.05;7.70;;;;;;;6.95;100.00;100120.97;4322354;33;20070;-76
2022/11/11 07:35:18;;;;;;;16.95;8.73;;;;;;;7.30;100.00;100142.31;4324044;33;20032;-75
2022/11/11 07:38:03;;;;;;;13.27;7.62;;;;;;;7.69;100.00;100146.13;4320675;33;20060;-75
2022/11/11 07:40:48;;;;;;;15.95;7.40;;;;;;;7.55;100.00;100151.47;4305066;33;20150;-75
2022/11/11 07:43:33;;;;;;;21.12;7.47;;;;;;;7.54;100.00;100123.00;4337582;33;20934;-75
2022/11/11 07:46:18;;;;;;;21.27;7.87;;;;;;;7.69;100.00;100163.06;4341678;32;20049;-74
2022/11/11 07:49:03;;;;;;;11.63;5.32;;;;;;;7.84;100.00;100144.09;4353595;32;20259;-75
2022/11/11 07:51:48;;;;;;;17.95;6.53;;;;;;;7.10;100.00;100081.47;4353804;32;20032;-73
2022/11/11 07:54:33;;;;;;;8.80;6.07;;;;;;;7.30;100.00;100121.69;4353557;32;20073;-74
2022/11/11 07:57:17;;;;;;;16.10;7.65;;;;;;;7.35;100.00;100129.13;4356915;32;20058;-75
2022/11/11 08:00:04;;;;;;;19.55;6.07;;;;;;;7.08;100.00;100116.50;4360837;32;20452;-76
2022/11/11 08:02:49;;;;;;;12.07;6.00;;;;;;;7.50;100.00;100124.44;4357831;32;20039;-75
2022/11/11 08:05:34;;;;;;;10.95;6.18;;;;;;;7.63;100.00;100163.84;4364385;32;20039;-78
2022/11/11 08:08:23;;;;;;;17.83;8.75;;;;;;;7.95;100.00;100162.25;4388661;32;20023;-74
2022/11/11 08:11:09;;;;;;;13.88;6.75;;;;;;;8.06;100.00;100133.16;4389638;32;20098;-74
2022/11/11 08:13:54;;;;;;;14.65;7.53;;;;;;;8.32;100.00;100168.03;4386767;32;20357;-73
2022/11/11 08:16:39;;;;;;;10.88;4.35;;;;;;;8.48;100.00;100166.00;4388870;32;20067;-73
2022/11/11 08:19:23;;;;;;;16.23;6.05;;;;;;;8.03;100.00;100155.06;4407539;32;20035;-73
2022/11/11 08:22:09;;;;;;;11.45;5.57;;;;;;;7.89;100.00;100130.06;4408545;32;20483;-73
2022/11/11 08:24:53;;;;;;;14.32;6.78;;;;;;;8.03;100.00;100152.37;4413066;32;20043;-74
2022/11/11 08:27:39;;;;;;;16.80;7.60;;;;;;;8.14;100.00;100143.72;4415688;32;20321;-73
2022/11/11 08:30:24;;;;;;;13.85;5.78;;;;;;;8.78;100.00;100170.94;4414841;32;20169;-74
2022/11/11 08:33:09;;;;;;;12.68;7.30;;;;;;;8.75;100.00;100179.41;4415822;32;20052;-74
2022/11/11 08:35:57;;;;;;;14.55;5.85;;;;;;;8.87;100.00;100185.75;4414259;32;20063;-74
2022/11/11 08:38:30;;;;;;;12.60;6.53;;;;;;;8.99;100.00;100183.28;4407270;32;20515;-74
2022/11/11 08:41:15;;;;;;;15.05;6.28;;;;;;;8.99;100.00;100186.78;4411138;32;20080;-74
2022/11/11 08:44:08;;;;;;;13.10;6.05;;;;;;;9.03;100.00;100184.47;4406365;32;20113;-74
2022/11/11 08:46:53;;;;;;;13.35;6.70;;;;;;;9.24;100.00;100196.84;4406473;32;20054;-73
2022/11/11 08:49:38;;;;;;;15.90;7.28;;;;;;;9.04;100.00;100192.34;4408631;32;20121;-74
2022/11/11 08:52:22;;;;;;;17.80;6.62;;;;;;;9.28;100.00;100155.03;4415516;32;20356;-75
2022/11/11 08:55:08;;;;;;;22.50;7.35;;;;;;;9.27;100.00;100154.22;4404691;32;20072;-73
2022/11/11 08:58:01;;;;;;;11.45;6.62;;;;;;;9.58;100.00;100186.75;4399961;32;20030;-73
2022/11/11 09:00:52;;;;;;;15.52;6.95;;;;;;;9.42;100.00;100145.06;4406041;32;20069;-75
2022/11/11 09:03:38;;;;;;;15.65;5.95;;;;;;;9.53;100.00;100162.37;4405281;32;20027;-74
2022/11/11 09:06:23;;;;;;;17.05;5.20;;;;;;;9.35;100.00;100182.72;4403708;32;20054;-76
2022/11/11 09:09:07;;;;;;;11.60;6.25;;;;;;;9.54;100.00;100196.28;4399838;32;20027;-75
2022/11/11 09:11:52;;;;;;;20.42;6.45;;;;;;;9.22;100.00;100134.41;4402034;32;20266;-76
2022/11/11 09:14:37;;;;;;;14.63;5.75;;;;;;;9.51;100.00;100169.81;4404765;32;20034;-75
2022/11/11 09:17:22;;;;;;;12.48;4.65;;;;;;;9.42;100.00;100194.28;4401146;32;20060;-75
2022/11/11 09:20:08;;;;;;;15.35;6.65;;;;;;;9.33;100.00;100165.16;4412091;32;20039;-74
2022/11/11 09:22:53;;;;;;;14.60;6.60;;;;;;;9.82;100.00;100195.94;4408999;32;20174;-74
2022/11/11 09:25:37;;;;;;;12.43;6.35;;;;;;;9.91;100.00;100153.47;4411796;32;20542;-74
2022/11/11 09:28:23;;;;;;;15.25;5.57;;;;;;;9.99;100.00;100134.38;4361778;32;20493;-74
2022/11/11 09:31:08;;;;;;;15.77;5.40;;;;;;;9.77;100.00;100152.72;4355301;32;20178;-75
2022/11/11 09:33:52;;;;;;;17.67;6.65;;;;;;;9.84;100.00;100160.75;4366798;32;20036;-75
2022/11/11 09:36:38;;;;;;;20.30;7.10;;;;;;;10.39;100.00;100171.75;4367511;32;20036;-75
2022/11/11 09:39:22;;;;;;;12.25;6.03;;;;;;;10.30;100.00;100143.41;4353279;32;20047;-76
2022/11/11 09:42:15;;;;;;;14.70;6.03;;;;;;;10.47;100.00;100163.38;4358117;32;20111;-76
2022/11/11 09:45:35;;;;;;;16.60;6.45;;;;;;;11.02;100.00;100180.66;4353383;32;20491;-75
2022/11/11 09:48:43;;;;;;;15.80;6.07;;;;;;;10.69;100.00;100138.72;4335796;32;20050;-75
2022/11/11 09:51:35;;;;;;;10.80;5.70;;;;;;;10.94;100.00;100141.34;4362289;32;20086;-76
2022/11/11 09:54:34;;;;;;;9.45;4.62;;;;;;;10.53;100.00;100177.84;4355786;32;20451;-74
2022/11/11 09:57:40;;;;;;;9.02;4.95;;;;;;;10.65;100.00;100099.81;4365356;32;20075;-76
2022/11/11 10:00:32;;;;;;;12.82;5.18;;;;;;;10.93;100.00;100165.81;4405178;32;20026;-75
2022/11/11 10:03:21;;;;;;;13.38;5.43;;;;;;;11.20;100.00;100161.78;4415507;32;20042;-74
2022/11/11 10:06:16;;;;;;;15.75;4.43;;;;;;;10.82;100.00;100160.16;4417208;32;20027;-76
2022/11/11 10:09:07;;;;;;;8.50;4.40;;;;;;;10.79;100.00;100182.16;4417565;32;20080;-76
2022/11/11 10:12:10;;;;;;;21.60;4.78;;;;;;;10.80;100.00;100185.66;4417387;32;20052;-75
2022/11/11 10:14:56;;;;;;;7.32;4.28;;;;;;;11.05;100.00;100169.44;4415972;32;20063;-74
2022/11/11 10:18:25;;;;;;;13.25;4.40;;;;;;;10.63;100.00;100164.69;4415735;32;20100;-74
2022/11/11 10:21:14;;;;;;;9.82;4.93;;;;;;;10.82;100.00;100170.94;4384828;32;20076;-73
2022/11/11 10:24:03;;;;;;;6.12;2.90;;;;;;;10.72;100.00;100167.91;4414925;32;20078;-74
2022/11/11 10:26:48;;;;;;;8.88;3.42;;;;;;;9.86;100.00;100118.31;4417404;32;20075;-74
2022/11/11 10:29:43;;;;;;;7.93;4.32;;;;;;;10.04;100.00;100147.97;4416854;32;20031;-73
2022/11/11 10:32:33;;;;;;;7.10;4.95;;;;;;;10.70;100.00;100135.00;4426355;32;20151;-74
2022/11/11 10:35:23;;;;;;;9.65;5.50;;;;;;;10.60;100.00;100134.69;4425721;32;20473;-73
2022/11/11 10:38:08;;;;;;;12.27;5.30;;;;;;;10.92;100.00;100162.31;4424338;32;20045;-74
2022/11/11 10:40:56;;;;;;;22.75;5.65;;;;;;;10.52;100.00;100182.38;4423705;32;20056;-73
2022/11/11 10:43:46;;;;;;;8.23;4.28;;;;;;;10.81;100.00;100136.94;4426927;32;20068;-74
2022/11/11 10:46:49;;;;;;;14.48;5.60;;;;;;;10.73;100.00;100126.47;4407034;32;20468;-74
2022/11/11 10:49:45;;;;;;;9.77;4.68;;;;;;;11.07;100.00;100173.56;4405727;32;20042;-76
2022/11/11 10:52:36;;;;;;;11.48;4.78;;;;;;;10.42;100.00;100098.63;4409060;32;20158;-75
2022/11/11 10:55:30;;;;;;;15.33;6.10;;;;;;;11.48;100.00;100167.69;4403029;32;20277;-74
2022/11/11 10:58:48;;;;;;;7.80;4.40;;;;;;;11.44;100.00;100119.59;4406087;32;20059;-74
2022/11/11 11:02:11;;;;;;;11.50;2.62;;;;;;;11.32;100.00;100164.53;4334161;32;20057;-74
2022/11/11 11:05:02;;;;;;;;;;;;;;;11.17;100.00;100156.84;4375991;32;20030;-74
2022/11/11 11:07:52;;;;;;;10.82;5.10;;;;;;;11.14;100.00;100151.91;4375771;32;19997;-75
2022/11/11 11:10:46;;;;;;;8.57;3.80;;;;;;;11.25;100.00;100158.44;4374122;32;20068;-75
2022/11/11 11:13:42;;;;;;;8.45;4.97;;;;;;;10.96;100.00;100116.88;4375233;32;20062;-74
2022/11/11 11:16:34;;;;;;;13.35;4.93;;;;;;;10.92;100.00;100118.41;4374813;32;20420;-74
2022/11/11 11:19:21;;;;;;;;;;;;;;;11.23;100.00;100149.72;4373056;32;20214;-72
2022/11/11 11:22:06;;;;;;;11.40;4.93;;;;;;;11.34;100.00;100145.44;4373574;32;19945;-73
2022/11/11 11:25:07;;;;;;;15.90;4.75;;;;;;;11.09;100.00;100065.53;4388766;32;20042;-72
2022/11/11 11:28:03;;;;;;;12.82;4.45;;;;;;;11.23;100.00;100112.81;4382562;32;20039;-73
2022/11/11 11:31:22;;;;;;;9.07;5.53;;;;;;;11.34;100.00;100099.59;4396248;32;20086;-74
2022/11/11 11:34:07;;;;;;;10.10;4.22;;;;;;;11.72;100.00;100128.13;4374458;32;20077;-74
2022/11/11 11:37:00;;;;;;;7.65;4.45;;;;;;;11.06;100.00;100111.78;4368994;32;20429;-74
2022/11/11 11:39:45;;;;;;;16.02;5.03;;;;;;;11.02;100.00;100083.63;4373031;32;20432;-73
2022/11/11 11:42:35;;;;;;;10.98;4.30;;;;;;;11.15;100.00;100120.38;4371935;32;20412;-74
2022/11/11 11:45:28;;;;;;;14.45;4.85;;;;;;;11.67;100.00;100117.19;4374603;32;20028;-75
2022/11/11 11:48:22;;;;;;;6.32;3.28;;;;;;;11.44;100.00;100091.81;4373984;32;20094;-73
2022/11/11 11:51:26;;;;;;;13.45;4.70;;;;;;;10.85;100.00;100089.66;4348730;32;20032;-75
2022/11/11 11:54:17;;;;;;;11.35;4.72;;;;;;;10.78;100.00;100032.31;4338465;33;20065;-72
2022/11/11 11:57:17;;;;;;;9.23;5.20;;;;;;;10.92;100.00;100059.12;4337157;33;20171;-74
2022/11/11 12:00:15;;;;;;;9.32;5.03;;;;;;;11.36;100.00;100113.66;4336896;33;20177;-74
2022/11/11 12:03:25;;;;;;;7.00;4.22;;;;;;;11.59;100.00;100113.75;4309659;33;20427;-75
2022/11/11 12:06:31;;;;;;;16.27;5.25;;;;;;;11.18;100.00;100088.41;4309563;33;20057;-75
2022/11/11 12:09:38;;;;;;;12.00;4.45;;;;;;;11.67;100.00;100095.63;4309482;33;20186;-75
2022/11/11 12:13:18;;;;;;;15.68;5.32;;;;;;;10.92;100.00;100104.91;4338780;33;20110;-80
2022/11/11 12:16:23;;;;;;;13.02;4.43;;;;;;;11.49;100.00;100108.13;4283113;33;20103;-76
2022/11/11 12:19:11;;;;;;;10.60;3.62;;;;;;;11.30;100.00;100099.25;4285369;33;20066;-75
2022/11/11 12:22:30;;;;;;;11.30;4.32;;;;;;;10.67;100.00;100070.78;4306955;33;20062;-76
2022/11/11 12:25:36;;;;;;;7.95;4.10;;;;;;;11.05;100.00;100110.94;4321863;33;20036;-78
2022/11/11 12:28:55;;;;;;;9.55;4.07;;;;;;;10.73;100.00;100081.47;4320555;33;20066;-77
2022/11/11 12:32:15;;;;;;;11.65;4.35;;;;;;;10.47;100.00;100071.03;4319773;33;20096;-77
2022/11/11 12:35:47;;;;;;;13.52;5.03;;;;;;;10.83;100.00;100107.06;4321295;33;20834;-77
2022/11/11 12:38:50;;;;;;;15.50;4.18;;;;;;;11.34;100.00;100105.81;4309257;33;20145;-77
2022/11/11 12:41:56;;;;;;;11.77;5.07;;;;;;;10.92;100.00;100099.53;4346069;32;20040;-77
2022/11/11 12:45:21;;;;;;;14.80;4.82;;;;;;;11.18;100.00;100101.06;4337459;32;20430;-77
2022/11/11 12:48:44;;;;;;;16.48;4.78;;;;;;;10.82;100.00;100083.91;4319506;33;20058;-77
2022/11/11 12:51:44;;;;;;;12.43;4.78;;;;;;;11.23;100.00;100102.03;4363442;32;20027;-77
2022/11/11 12:54:41;;;;;;;12.30;5.00;;;;;;;10.78;100.00;100088.06;4390565;32;20174;-77
2022/11/11 12:58:04;;;;;;;11.02;3.72;;;;;;;11.16;100.00;100101.28;4392172;32;20043;-77
2022/11/11 13:01:13;;;;;;;10.20;5.18;;;;;;;11.02;100.00;100113.28;4393844;32;20034;-76
2022/11/11 13:04:11;;;;;;;6.30;3.40;;;;;;;11.14;100.00;100100.69;4395156;32;20042;-77
2022/11/11 13:07:11;;;;;;;7.30;3.97;;;;;;;10.82;100.00;100116.22;4381464;32;20031;-77
2022/11/11 13:10:11;;;;;;;8.88;3.97;;;;;;;11.04;100.00;100097.69;4355522;32;20039;-77
2022/11/11 13:13:33;;;;;;;15.77;5.47;;;;;;;11.39;100.00;100110.53;4367625;32;20028;-76
2022/11/11 13:16:22;;;;;;;9.70;4.07;;;;;;;11.60;100.00;100107.31;4367406;32;20043;-76
2022/11/11 13:19:23;;;;;;;15.27;5.28;;;;;;;11.44;100.00;100110.69;4380898;32;20035;-75
2022/11/11 13:22:18;;;;;;;6.43;3.65;;;;;;;11.21;100.00;100089.81;4390340;32;20164;-75
2022/11/11 13:25:05;;;;;;;9.32;4.12;;;;;;;10.92;100.00;100086.06;4389830;32;20077;-76
2022/11/11 13:27:59;;;;;;;9.50;3.50;;;;;;;11.19;100.00;100110.81;4386745;32;20074;-76
2022/11/11 13:30:59;;;;;;;10.13;3.83;;;;;;;11.10;100.00;100086.00;4382776;32;20023;-75
2022/11/11 13:33:48;;;;;;;7.90;3.53;;;;;;;11.55;100.00;100104.50;4395885;32;20108;-76
2022/11/11 13:36:43;;;;;;;5.47;3.03;;;;;;;11.29;100.00;100107.56;4383196;32;20425;-73
2022/11/11 13:39:36;;;;;;;7.72;3.95;;;;;;;11.18;100.00;100109.97;4390692;32;20061;-75
2022/11/11 13:42:26;;;;;;;11.88;4.55;;;;;;;11.24;100.00;100108.25;4420513;32;20123;-77
2022/11/11 13:45:36;;;;;;;1.50;1.40;;;;;;;11.03;100.00;100117.63;4425341;32;20068;-76
2022/11/11 13:48:33;;;;;;;7.32;3.55;;;;;;;11.07;100.00;100118.81;4431890;32;20093;-76
2022/11/11 13:51:26;;;;;;;11.68;3.72;;;;;;;10.99;100.00;100121.81;4427576;32;20079;-75
2022/11/11 13:54:26;;;;;;;6.60;3.35;;;;;;;11.04;100.00;100073.44;4429796;32;20486;-75
2022/11/11 13:57:25;;;;;;;12.75;4.07;;;;;;;11.20;100.00;100107.88;4429604;32;20072;-76
2022/11/11 14:00:17;;;;;;;9.68;4.05;;;;;;;11.09;100.00;100084.37;4429309;32;20059;-76
2022/11/11 14:03:18;;;;;;;9.55;3.15;;;;;;;11.02;100.00;100122.19;4411277;32;20072;-75
2022/11/11 14:06:15;;;;;;;9.07;3.72;;;;;;;10.95;100.00;100091.00;4412088;32;20374;-75
2022/11/11 14:09:00;;;;;;;8.98;4.25;;;;;;;11.11;100.00;100125.41;4414325;32;20058;-76
2022/11/11 14:11:45;;;;;;;12.20;3.53;;;;;;;11.00;100.00;100099.22;4391417;32;20031;-75
2022/11/11 14:14:30;;;;;;;6.50;3.78;;;;;;;10.72;100.00;100100.56;4387977;32;20214;-75
2022/11/11 14:17:17;;;;;;;8.48;3.28;;;;;;;11.02;100.00;100132.97;4392308;32;20019;-76
2022/11/11 14:20:33;;;;;;;13.52;4.30;;;;;;;10.78;100.00;100109.62;4394987;32;20047;-75
2022/11/11 14:23:29;;;;;;;8.77;3.90;;;;;;;11.12;100.00;100126.22;4394577;32;20093;-75